Time;durP1;ratioP1;P1;durP2;ratioP2;P2;SDS_P1;SDS_P2;PMS_P1;PMS_P2;Temp;Humidity;BMP_temperature;BMP_pressure;BME280_temperature;BME280_humidity;BME280_pressure;Samples;Min_cycle;Max_cycle;Signal;HPM_P1;HPM_P2
2022/12/27 00:00:45;;;;;;;1999.90;999.90;;;7.10;99.90;;;;;;5053526;28;20060;-75
2022/12/27 00:03:11;;;;;;;1999.90;999.90;;;7.10;99.90;;;;;;5053174;28;20357;-76
2022/12/27 00:05:36;;;;;;;1999.90;999.90;;;7.00;99.90;;;;;;5053453;28;20087;-76
2022/12/27 00:08:02;;;;;;;1999.90;999.90;;;7.00;99.90;;;;;;5053615;28;20467;-76
2022/12/27 00:10:28;;;;;;;1999.90;999.90;;;6.90;99.90;;;;;;5053388;28;20035;-76
2022/12/27 00:12:53;;;;;;;1999.90;999.90;;;7.00;99.90;;;;;;5052547;28;20056;-73
2022/12/27 00:15:19;;;;;;;1999.90;999.90;;;6.90;99.90;;;;;;5053464;28;20025;-76
2022/12/27 00:17:45;;;;;;;1999.90;999.90;;;6.80;99.90;;;;;;5053216;28;20029;-76
2022/12/27 00:20:10;;;;;;;1999.90;999.90;;;6.80;99.90;;;;;;5053149;28;20021;-73
2022/12/27 00:22:36;;;;;;;1999.90;999.90;;;6.70;99.90;;;;;;5052844;28;20100;-76
2022/12/27 00:25:02;;;;;;;1999.90;999.90;;;6.70;99.90;;;;;;5052656;28;20021;-73
2022/12/27 00:27:27;;;;;;;1999.90;999.90;;;6.60;99.90;;;;;;5052650;28;20057;-73
2022/12/27 00:29:53;;;;;;;1999.90;999.90;;;6.60;99.90;;;;;;5053010;28;20061;-72
2022/12/27 00:32:18;;;;;;;1999.90;999.90;;;6.60;99.90;;;;;;5051212;28;20025;-72
2022/12/27 00:34:44;;;;;;;1999.90;999.90;;;6.50;99.90;;;;;;5051045;28;20033;-76
2022/12/27 00:37:10;;;;;;;1999.90;999.90;;;6.50;99.90;;;;;;5052751;28;20033;-76
2022/12/27 00:39:36;;;;;;;1999.90;999.90;;;6.50;99.90;;;;;;5053030;28;20063;-73
2022/12/27 00:42:01;;;;;;;1999.90;999.90;;;6.40;99.90;;;;;;5052298;28;20530;-76
2022/12/27 00:44:27;;;;;;;1999.90;999.90;;;6.30;99.90;;;;;;5052842;28;20044;-76
2022/12/27 00:46:52;;;;;;;1999.90;999.90;;;6.30;99.90;;;;;;5052551;28;20388;-76
2022/12/27 00:49:18;;;;;;;1999.90;999.90;;;6.30;99.90;;;;;;5052484;28;20103;-76
2022/12/27 00:51:44;;;;;;;1999.90;999.90;;;6.30;99.90;;;;;;5052709;28;20025;-76
2022/12/27 00:54:09;;;;;;;1999.90;999.90;;;6.30;99.90;;;;;;5052808;28;20470;-76
2022/12/27 00:56:35;;;;;;;1999.90;999.90;;;6.20;99.90;;;;;;5050844;28;20040;-76
2022/12/27 00:59:03;;;;;;;1999.90;999.90;;;6.20;99.90;;;;;;5052227;28;20472;-76
2022/12/27 01:01:32;;;;;;;1999.90;999.90;;;6.20;99.90;;;;;;5052396;28;20078;-76
2022/12/27 01:03:58;;;;;;;1999.90;999.90;;;6.30;99.90;;;;;;5052546;28;20079;-75
2022/12/27 01:06:27;;;;;;;1999.90;999.90;;;6.20;99.90;;;;;;5052539;28;20573;-76
2022/12/27 01:08:53;;;;;;;1999.90;999.90;;;6.10;99.90;;;;;;5052159;28;20448;-72
2022/12/27 01:11:19;;;;;;;1999.90;999.90;;;6.10;99.90;;;;;;5052115;28;20025;-73
2022/12/27 01:13:45;;;;;;;1999.90;999.90;;;6.10;99.90;;;;;;5052203;28;20511;-76
2022/12/27 01:16:14;;;;;;;1999.90;999.90;;;6.00;99.90;;;;;;5051891;28;20021;-73
2022/12/27 01:18:40;;;;;;;1999.90;999.90;;;5.90;99.90;;;;;;5051709;28;20037;-76
2022/12/27 01:21:07;;;;;;;1999.90;999.90;;;5.90;99.90;;;;;;5051800;28;20028;-76
2022/12/27 01:23:34;;;;;;;1999.90;999.90;;;6.00;99.90;;;;;;5051735;28;20033;-76
2022/12/27 01:26:05;;;;;;;1999.90;999.90;;;6.10;99.90;;;;;;5051782;28;20035;-76
2022/12/27 01:28:31;;;;;;;1999.90;999.90;;;6.10;99.90;;;;;;5052373;28;20488;-73
2022/12/27 01:30:56;;;;;;;1999.90;999.90;;;6.00;99.90;;;;;;5050415;28;20078;-76
2022/12/27 01:33:22;;;;;;;1999.90;999.90;;;6.00;99.90;;;;;;5050345;28;20055;-72
2022/12/27 01:35:48;;;;;;;1999.90;999.90;;;6.00;99.90;;;;;;5048420;28;20051;-76
2022/12/27 01:38:14;;;;;;;1999.90;999.90;;;6.00;99.90;;;;;;5052237;28;20361;-76
2022/12/27 01:40:40;;;;;;;1999.90;999.90;;;6.10;99.90;;;;;;5050752;28;20021;-76
2022/12/27 01:43:05;;;;;;;1999.90;999.90;;;6.20;99.90;;;;;;5051392;28;20036;-76
2022/12/27 01:45:35;;;;;;;1999.90;999.90;;;6.10;99.90;;;;;;5050711;28;20029;-76
2022/12/27 01:48:05;;;;;;;1999.90;999.90;;;6.20;99.90;;;;;;5052005;28;20037;-76
2022/12/27 01:50:39;;;;;;;1999.90;999.90;;;6.20;99.90;;;;;;5051954;28;20100;-76
2022/12/27 01:53:24;;;;;;;1999.90;999.90;;;6.30;99.90;;;;;;5051916;28;20029;-76
2022/12/27 01:55:59;;;;;;;1999.90;999.90;;;6.30;99.90;;;;;;5051609;28;20032;-73
2022/12/27 01:58:43;;;;;;;1999.90;999.90;;;6.30;99.90;;;;;;5051928;28;20496;-76
2022/12/27 02:01:20;;;;;;;1999.90;999.90;;;6.20;99.90;;;;;;5051789;28;20017;-73
2022/12/27 02:03:55;;;;;;;1999.90;999.90;;;6.30;99.90;;;;;;5051761;28;20048;-76
2022/12/27 02:06:21;;;;;;;1999.90;999.90;;;6.30;99.90;;;;;;5051703;28;20033;-76
2022/12/27 02:08:56;;;;;;;1999.90;999.90;;;6.20;99.90;;;;;;5051647;28;20471;-76
2022/12/27 02:14:12;;;;;;;1999.90;999.90;;;6.00;99.90;;;;;;5052042;28;20051;-76
2022/12/27 02:16:38;;;;;;;1999.90;999.90;;;6.10;99.90;;;;;;5051439;28;20025;-76
2022/12/27 02:19:31;;;;;;;1999.90;999.90;;;6.10;99.90;;;;;;5051585;28;20435;-76
2022/12/27 02:26:04;;;;;;;1999.90;999.90;;;6.10;99.90;;;;;;5051192;28;20443;-76
2022/12/27 02:28:55;;;;;;;1999.90;999.90;;;6.30;99.90;;;;;;5051712;28;20018;-76
2022/12/27 02:31:51;;;;;;;1999.90;999.90;;;6.40;99.90;;;;;;5047547;28;20021;-77
2022/12/27 02:34:25;;;;;;;1999.90;999.90;;;6.40;99.90;;;;;;5040218;28;20108;-77
2022/12/27 02:36:52;;;;;;;1999.90;999.90;;;5.80;99.90;;;;;;5050429;28;20112;-76
2022/12/27 02:39:21;;;;;;;1999.90;999.90;;;5.80;99.90;;;;;;5051310;28;20025;-77
2022/12/27 02:53:16;;;;;;;1999.90;999.90;;;5.60;99.90;;;;;;5055009;28;20047;-73
2022/12/27 02:59:06;;;;;;;;;;;5.80;99.90;;;;;;5055142;28;20028;-76
2022/12/27 03:04:43;;;;;;;1999.90;999.90;;;5.90;99.90;;;;;;5054466;28;20060;-76
2022/12/27 03:07:12;;;;;;;1999.90;999.90;;;6.00;99.90;;;;;;5054347;28;20033;-76
2022/12/27 03:16:15;;;;;;;1999.90;999.90;;;5.90;99.90;;;;;;5054501;28;20082;-77
2022/12/27 03:18:55;;;;;;;1999.90;999.90;;;6.00;99.90;;;;;;5054388;28;20399;-77
2022/12/27 03:27:09;;;;;;;1999.90;999.90;;;6.20;99.90;;;;;;5053939;28;20086;-77
2022/12/27 03:35:17;;;;;;;1999.90;999.90;;;6.20;99.90;;;;;;5053862;28;20396;-76
2022/12/27 03:38:04;;;;;;;1999.90;999.90;;;6.20;99.90;;;;;;5053433;28;20078;-76
2022/12/27 03:43:44;;;;;;;1999.90;999.90;;;6.20;99.90;;;;;;5052942;28;20443;-76
2022/12/27 03:46:35;;;;;;;1999.90;999.90;;;6.20;99.90;;;;;;5052588;28;20108;-76
2022/12/27 03:49:09;;;;;;;1999.90;999.90;;;6.20;99.90;;;;;;5053518;28;20393;-77
2022/12/27 03:51:41;;;;;;;1999.90;999.90;;;6.30;99.90;;;;;;5053697;28;20049;-77
2022/12/27 03:54:17;;;;;;;1999.90;999.90;;;6.30;99.90;;;;;;5053542;28;20032;-77
2022/12/27 03:56:43;;;;;;;1999.90;999.90;;;6.30;99.90;;;;;;5053164;28;20373;-76
2022/12/27 03:59:11;;;;;;;1999.90;999.90;;;6.30;99.90;;;;;;5051904;28;20044;-72
2022/12/27 04:01:36;;;;;;;1999.90;999.90;;;6.30;99.90;;;;;;5053479;28;20045;-76
2022/12/27 04:04:02;;;;;;;1999.90;999.90;;;6.40;99.90;;;;;;5053710;28;20041;-76
2022/12/27 04:06:28;;;;;;;1999.90;999.90;;;6.40;99.90;;;;;;5053458;28;20025;-77
2022/12/27 04:36:13;;;;;;;1999.90;999.90;;;6.10;99.90;;;;;;5052864;28;20181;-77
2022/12/27 04:38:39;;;;;;;1999.90;999.90;;;6.00;99.90;;;;;;5052333;28;20080;-77
2022/12/27 04:55:27;;;;;;;1999.90;999.90;;;5.90;99.90;;;;;;5050510;28;20029;-78
2022/12/27 04:57:54;;;;;;;1999.90;999.90;;;5.90;99.90;;;;;;5052014;28;20032;-77
2022/12/27 05:03:15;;;;;;;1999.90;999.90;;;6.10;99.90;;;;;;5052646;28;20094;-73
2022/12/27 05:05:43;;;;;;;1999.90;999.90;;;6.20;99.90;;;;;;5051789;28;20045;-77
2022/12/27 05:16:22;;;;;;;1999.90;999.90;;;6.30;99.90;;;;;;5052233;28;20091;-77
2022/12/27 05:18:48;;;;;;;1999.90;999.90;;;6.30;99.90;;;;;;5052181;28;20049;-76
2022/12/27 05:21:13;;;;;;;1999.90;999.90;;;6.30;99.90;;;;;;5051944;28;20021;-77
2022/12/27 05:26:26;;;;;;;1999.90;999.90;;;6.30;99.90;;;;;;5051830;28;20043;-77
2022/12/27 05:28:53;;;;;;;1999.90;999.90;;;6.30;99.90;;;;;;5052072;28;20033;-73
2022/12/27 05:31:19;;;;;;;1999.90;999.90;;;6.20;99.90;;;;;;5049525;28;20028;-77
2022/12/27 05:33:45;;;;;;;1999.90;999.90;;;6.20;99.90;;;;;;5050839;28;20536;-77
2022/12/27 05:36:11;;;;;;;1999.90;999.90;;;6.20;99.90;;;;;;5052029;28;20120;-77
2022/12/27 05:38:37;;;;;;;1999.90;999.90;;;6.20;99.90;;;;;;5050644;28;20060;-77
2022/12/27 05:41:03;;;;;;;1999.90;999.90;;;6.20;99.90;;;;;;5051473;28;20021;-77
2022/12/27 05:43:29;;;;;;;1999.90;999.90;;;6.30;99.90;;;;;;5049837;28;20456;-77
2022/12/27 05:46:01;;;;;;;1999.90;999.90;;;6.40;99.90;;;;;;5052244;28;20476;-77
2022/12/27 05:48:27;;;;;;;1999.90;999.90;;;6.40;99.90;;;;;;5052023;28;20479;-77
2022/12/27 05:50:53;;;;;;;1999.90;999.90;;;6.40;99.90;;;;;;5051662;28;20043;-77
2022/12/27 05:53:18;;;;;;;1999.90;999.90;;;6.40;99.90;;;;;;5051633;28;20025;-76
2022/12/27 05:55:51;;;;;;;1999.90;999.90;;;6.30;99.90;;;;;;5051548;28;20168;-73
2022/12/27 05:58:17;;;;;;;;;;;6.30;99.90;;;;;;5051158;28;20163;-77
2022/12/27 06:00:42;;;;;;;1999.90;999.90;;;6.30;99.90;;;;;;5051764;28;19970;-77
2022/12/27 06:03:08;;;;;;;1999.90;999.90;;;6.30;99.90;;;;;;5051550;28;20021;-76
2022/12/27 06:05:34;;;;;;;1999.90;999.90;;;6.40;99.90;;;;;;5051309;28;20052;-77
2022/12/27 06:07:59;;;;;;;1999.90;999.90;;;6.40;99.90;;;;;;5052028;28;20128;-77
2022/12/27 06:10:25;;;;;;;1999.90;999.90;;;6.40;99.90;;;;;;5051828;28;20021;-77
2022/12/27 06:12:50;;;;;;;1999.90;999.90;;;6.40;99.90;;;;;;5051356;28;20053;-77
2022/12/27 06:15:16;;;;;;;1999.90;999.90;;;6.30;99.90;;;;;;5051505;28;20684;-77
2022/12/27 06:17:42;;;;;;;1999.90;999.90;;;6.30;99.90;;;;;;5052572;28;20025;-76
2022/12/27 06:20:09;;;;;;;1999.90;999.90;;;6.30;99.90;;;;;;5055569;28;20550;-76
2022/12/27 06:22:35;;;;;;;1999.90;999.90;;;6.20;99.90;;;;;;5055131;28;20017;-77
2022/12/27 06:25:00;;;;;;;1999.90;999.90;;;6.20;99.90;;;;;;5054990;28;20082;-76
2022/12/27 06:27:26;;;;;;;1999.90;999.90;;;6.20;99.90;;;;;;5054017;28;20029;-77
2022/12/27 06:29:52;;;;;;;1999.90;999.90;;;6.20;99.90;;;;;;5055012;28;20059;-77
2022/12/27 06:32:17;;;;;;;1999.90;999.90;;;6.10;99.90;;;;;;5054653;28;20120;-77
2022/12/27 06:34:44;;;;;;;1999.90;999.90;;;6.20;99.90;;;;;;5054874;28;20519;-74
2022/12/27 06:37:09;;;;;;;1999.90;999.90;;;6.20;99.90;;;;;;5054499;28;20029;-73
2022/12/27 06:39:35;;;;;;;1999.90;999.90;;;6.20;99.90;;;;;;5054189;28;20098;-73
2022/12/27 06:42:01;;;;;;;1999.90;999.90;;;6.20;99.90;;;;;;5051105;28;20049;-74
2022/12/27 06:44:26;;;;;;;1999.90;999.90;;;6.20;99.90;;;;;;5036927;28;20435;-78
2022/12/27 06:46:52;;;;;;;1999.90;999.90;;;6.10;99.90;;;;;;5031982;28;20408;-77
2022/12/27 06:49:18;;;;;;;1999.90;999.90;;;6.10;99.90;;;;;;5023980;28;20108;-73
2022/12/27 06:51:43;;;;;;;1999.90;999.90;;;6.10;99.90;;;;;;5030659;28;20037;-73
2022/12/27 06:54:09;;;;;;;1999.90;999.90;;;6.10;99.90;;;;;;5038097;28;20039;-77
2022/12/27 06:56:34;;;;;;;1999.90;999.90;;;6.20;99.90;;;;;;5051010;28;20102;-77
2022/12/27 06:59:00;;;;;;;1999.90;999.90;;;6.10;99.90;;;;;;5040339;28;20034;-77
2022/12/27 07:01:27;;;;;;;1999.90;999.90;;;6.20;99.90;;;;;;5032559;28;20056;-77
2022/12/27 07:03:55;;;;;;;1999.90;999.90;;;6.10;99.90;;;;;;5054747;28;20055;-73
2022/12/27 07:06:23;;;;;;;1999.90;999.90;;;6.20;99.90;;;;;;5053851;28;20074;-77
2022/12/27 07:08:50;;;;;;;1999.90;999.90;;;6.20;99.90;;;;;;5054019;28;20025;-73
2022/12/27 07:11:17;;;;;;;1999.90;999.90;;;6.20;99.90;;;;;;5053908;28;20075;-77
2022/12/27 07:13:45;;;;;;;1999.90;999.90;;;6.20;99.90;;;;;;5053895;28;20028;-73
2022/12/27 07:16:13;;;;;;;1999.90;999.90;;;6.20;99.90;;;;;;5054046;28;20484;-73
2022/12/27 07:18:39;;;;;;;1999.90;999.90;;;6.20;99.90;;;;;;5053731;28;20033;-73
2022/12/27 07:21:07;;;;;;;1999.90;999.90;;;6.20;99.90;;;;;;5053411;28;20021;-73
2022/12/27 07:23:33;;;;;;;1999.90;999.90;;;6.20;99.90;;;;;;5053739;28;20021;-77
2022/12/27 07:26:04;;;;;;;1999.90;999.90;;;6.20;99.90;;;;;;5050496;28;20056;-77
2022/12/27 07:28:29;;;;;;;1999.90;999.90;;;6.10;99.90;;;;;;5051737;28;20032;-75
2022/12/27 07:30:55;;;;;;;1999.90;999.90;;;6.10;99.90;;;;;;5041185;28;20110;-77
2022/12/27 07:33:21;;;;;;;1999.90;999.90;;;6.10;99.90;;;;;;5039094;28;20056;-77
2022/12/27 07:35:46;;;;;;;1999.90;999.90;;;6.10;99.90;;;;;;5030636;28;20032;-77
2022/12/27 07:38:12;;;;;;;1999.90;999.90;;;6.10;99.90;;;;;;5035066;28;20385;-77
2022/12/27 07:40:37;;;;;;;1999.90;999.90;;;6.10;99.90;;;;;;5048934;28;20029;-77
2022/12/27 07:43:03;;;;;;;1999.90;999.90;;;6.10;99.90;;;;;;5051710;28;20068;-77
2022/12/27 07:45:29;;;;;;;1999.90;999.90;;;6.10;99.90;;;;;;5050553;28;20025;-73
2022/12/27 07:47:54;;;;;;;1999.90;999.90;;;6.10;99.90;;;;;;5048703;28;20056;-72
2022/12/27 07:50:20;;;;;;;1999.90;999.90;;;6.10;99.90;;;;;;5031630;28;20049;-78
2022/12/27 07:52:45;;;;;;;1999.90;999.90;;;6.10;99.90;;;;;;5038120;28;20035;-77
2022/12/27 07:55:11;;;;;;;1999.90;999.90;;;6.10;99.90;;;;;;5051832;28;20488;-73
2022/12/27 07:57:37;;;;;;;1999.90;999.90;;;6.00;99.90;;;;;;5049979;28;20037;-73
2022/12/27 08:00:04;;;;;;;1999.90;999.90;;;6.00;99.90;;;;;;5049975;28;20025;-72
2022/12/27 08:02:29;;;;;;;1999.90;999.90;;;6.00;99.90;;;;;;5051996;28;20029;-78
2022/12/27 08:04:55;;;;;;;1999.90;999.90;;;6.00;99.90;;;;;;5052437;28;20434;-77
2022/12/27 08:07:20;;;;;;;1999.90;999.90;;;5.90;99.90;;;;;;5052161;28;20025;-73
2022/12/27 08:09:47;;;;;;;1999.90;999.90;;;5.90;99.90;;;;;;5053067;28;20025;-73
2022/12/27 08:12:13;;;;;;;1999.90;999.90;;;5.90;99.90;;;;;;5052646;28;20028;-77
2022/12/27 08:14:40;;;;;;;1999.90;999.90;;;5.80;99.90;;;;;;5051743;28;20463;-73
2022/12/27 08:17:19;;;;;;;1999.90;999.90;;;5.80;99.90;;;;;;5052946;28;20033;-78
2022/12/27 08:19:45;;;;;;;1999.90;999.90;;;5.70;99.90;;;;;;5052407;28;20033;-73
2022/12/27 08:22:11;;;;;;;1999.90;999.90;;;5.70;99.90;;;;;;5052380;28;20021;-73
2022/12/27 08:24:39;;;;;;;1999.90;999.90;;;5.70;99.90;;;;;;5052556;28;20036;-77
2022/12/27 08:27:05;;;;;;;1999.90;999.90;;;5.70;99.90;;;;;;5051700;28;20446;-77
2022/12/27 08:29:31;;;;;;;1999.90;999.90;;;5.70;99.90;;;;;;5052256;28;20110;-73
2022/12/27 08:31:57;;;;;;;1999.90;999.90;;;5.70;99.90;;;;;;5052494;28;20104;-78
2022/12/27 08:34:22;;;;;;;1999.90;999.90;;;5.70;99.90;;;;;;5051795;28;20032;-78
2022/12/27 08:36:51;;;;;;;1999.90;999.90;;;5.80;99.90;;;;;;5052048;28;20025;-73
2022/12/27 08:39:18;;;;;;;1999.90;999.90;;;5.90;99.90;;;;;;5051238;28;20039;-72
2022/12/27 08:41:44;;;;;;;1999.90;999.90;;;5.90;99.90;;;;;;5051298;28;20032;-77
2022/12/27 08:44:10;;;;;;;1999.90;999.90;;;5.90;99.90;;;;;;5052116;28;20025;-78
2022/12/27 08:46:36;;;;;;;1999.90;999.90;;;5.90;99.90;;;;;;5052150;28;20025;-73
2022/12/27 08:49:03;;;;;;;1999.90;999.90;;;6.00;99.90;;;;;;5051265;28;20126;-78
2022/12/27 08:51:29;;;;;;;1999.90;999.90;;;6.10;99.90;;;;;;5050472;28;20029;-77
2022/12/27 08:53:54;;;;;;;1999.90;999.90;;;6.10;99.90;;;;;;5050722;28;20111;-78
2022/12/27 08:56:20;;;;;;;1999.90;999.90;;;6.10;99.90;;;;;;5051805;28;20070;-78
2022/12/27 08:58:49;;;;;;;1999.90;999.90;;;6.00;99.90;;;;;;5051458;28;20033;-72
2022/12/27 09:01:15;;;;;;;1999.90;999.90;;;6.10;99.90;;;;;;5052351;28;20074;-77
2022/12/27 09:03:40;;;;;;;1999.90;999.90;;;6.10;99.90;;;;;;5051806;28;20112;-73
2022/12/27 09:06:14;;;;;;;1999.90;999.90;;;6.10;99.90;;;;;;5052818;28;20029;-72
2022/12/27 09:08:41;;;;;;;1999.90;999.90;;;6.10;99.90;;;;;;5071619;28;20457;-78
2022/12/27 09:11:09;;;;;;;1999.90;999.90;;;6.00;99.90;;;;;;5071497;28;20090;-73
2022/12/27 09:13:34;;;;;;;1999.90;999.90;;;6.10;99.90;;;;;;5071781;28;20029;-73
2022/12/27 09:16:04;;;;;;;1999.90;999.90;;;6.10;99.90;;;;;;5071732;28;20107;-73
2022/12/27 09:18:30;;;;;;;1999.90;999.90;;;6.20;99.90;;;;;;5071161;28;20025;-74
2022/12/27 09:21:02;;;;;;;1999.90;999.90;;;6.10;99.90;;;;;;5051148;28;20079;-77
2022/12/27 09:23:29;;;;;;;1999.90;999.90;;;6.20;99.90;;;;;;5051365;28;20029;-77
2022/12/27 09:25:54;;;;;;;1999.90;999.90;;;6.30;99.90;;;;;;5050990;28;20024;-74
2022/12/27 09:28:20;;;;;;;1999.90;999.90;;;6.30;99.90;;;;;;5050043;28;20037;-74
2022/12/27 09:30:46;;;;;;;1999.90;999.90;;;6.30;99.90;;;;;;5050255;28;20040;-74
2022/12/27 09:33:11;;;;;;;1999.90;999.90;;;6.40;99.90;;;;;;5051169;28;20104;-76
2022/12/27 09:35:37;;;;;;;1999.90;999.90;;;6.50;99.90;;;;;;5050519;28;20426;-76
2022/12/27 09:38:02;;;;;;;1999.90;999.90;;;6.50;99.90;;;;;;5051146;28;20037;-76
2022/12/27 09:40:28;;;;;;;1999.90;999.90;;;6.70;99.90;;;;;;5051143;28;20519;-73
2022/12/27 09:43:07;;;;;;;1999.90;999.90;;;6.70;99.90;;;;;;5051150;28;20021;-76
2022/12/27 09:45:47;;;;;;;1999.90;999.90;;;6.80;99.90;;;;;;5050645;28;20025;-76
2022/12/27 09:48:37;;;;;;;1999.90;999.90;;;6.90;99.90;;;;;;5046268;28;20515;-76
2022/12/27 09:51:19;;;;;;;1999.90;999.90;;;6.90;99.90;;;;;;5051605;28;20534;-76
2022/12/27 09:54:03;;;;;;;1999.90;999.90;;;6.90;99.90;;;;;;5050601;28;20040;-74
2022/12/27 09:56:32;;;;;;;1999.90;999.90;;;7.00;99.90;;;;;;5055231;28;20029;-74
2022/12/27 09:59:13;;;;;;;1999.90;999.90;;;7.00;99.90;;;;;;5054936;28;20025;-76
2022/12/27 10:01:39;;;;;;;1999.90;999.90;;;7.10;99.90;;;;;;5055360;28;20018;-76
2022/12/27 10:04:12;;;;;;;1999.90;999.90;;;7.20;99.90;;;;;;5055670;28;20116;-74
2022/12/27 10:06:50;;;;;;;1999.90;999.90;;;7.30;99.90;;;;;;5055348;28;20408;-76
2022/12/27 10:09:24;;;;;;;1999.90;999.90;;;7.40;99.90;;;;;;5054890;28;20083;-77
2022/12/27 10:12:12;;;;;;;1999.90;999.90;;;7.70;99.90;;;;;;5055097;28;20108;-74
2022/12/27 10:15:10;;;;;;;1999.90;999.90;;;7.90;99.90;;;;;;5055212;28;20523;-77
2022/12/27 10:17:47;;;;;;;1999.90;999.90;;;8.00;99.90;;;;;;5054265;28;20033;-72
2022/12/27 10:20:19;;;;;;;1999.90;999.90;;;8.30;99.90;;;;;;5054807;28;20017;-74
2022/12/27 10:22:49;;;;;;;1999.90;999.90;;;8.40;99.90;;;;;;5052789;28;20029;-72
2022/12/27 10:25:19;;;;;;;1999.90;999.90;;;8.60;99.90;;;;;;5052909;28;20484;-73
2022/12/27 10:27:46;;;;;;;1999.90;999.90;;;8.50;99.90;;;;;;5054231;28;20076;-76
2022/12/27 10:30:18;;;;;;;1999.90;999.90;;;8.60;99.90;;;;;;5054027;28;20090;-77
2022/12/27 10:32:45;;;;;;;1999.90;999.90;;;8.90;99.90;;;;;;5054991;28;20075;-73
2022/12/27 10:35:17;;;;;;;1999.90;999.90;;;9.10;99.90;;;;;;5054607;28;20025;-73
2022/12/27 10:37:44;;;;;;;1999.90;999.90;;;9.10;99.90;;;;;;5053850;28;20091;-76
2022/12/27 10:40:19;;;;;;;1999.90;999.90;;;9.20;99.90;;;;;;5053975;28;20025;-75
2022/12/27 10:42:58;;;;;;;1999.90;999.90;;;9.20;99.90;;;;;;5054265;28;20017;-75
2022/12/27 10:45:32;;;;;;;1999.90;999.90;;;9.10;99.90;;;;;;5065783;28;20019;-73
2022/12/27 10:48:17;;;;;;;1999.90;999.90;;;9.20;99.90;;;;;;5053761;28;20117;-76
2022/12/27 10:50:47;;;;;;;1999.90;999.90;;;9.00;99.90;;;;;;5054241;28;20044;-75
2022/12/27 10:53:48;;;;;;;1999.90;999.90;;;8.70;99.90;;;;;;5054493;28;20025;-72
2022/12/27 10:56:37;;;;;;;1999.90;999.90;;;8.50;99.90;;;;;;5012145;28;20030;-76
2022/12/27 10:59:17;;;;;;;1999.90;999.90;;;8.40;99.90;;;;;;5051998;28;20087;-72
2022/12/27 11:01:44;;;;;;;1999.90;999.90;;;8.40;99.90;;;;;;5054039;28;20025;-72
2022/12/27 11:04:19;;;;;;;1999.90;999.90;;;8.50;99.90;;;;;;5053218;28;20041;-72
2022/12/27 11:06:50;;;;;;;1999.90;999.90;;;8.50;99.90;;;;;;5054514;28;20154;-77
2022/12/27 11:09:25;;;;;;;1999.90;999.90;;;8.60;99.90;;;;;;5053809;28;20029;-76
2022/12/27 11:11:51;;;;;;;1999.90;999.90;;;8.70;99.90;;;;;;5054046;28;20024;-73
2022/12/27 11:14:19;;;;;;;1999.90;999.90;;;8.70;99.90;;;;;;5035301;28;20522;-77
2022/12/27 11:16:47;;;;;;;1999.90;999.90;;;8.60;99.90;;;;;;5042475;28;20025;-76
2022/12/27 11:19:25;;;;;;;1999.90;999.90;;;8.60;99.90;;;;;;5053575;28;20028;-76
2022/12/27 11:21:53;;;;;;;1999.90;999.90;;;8.80;99.90;;;;;;5053792;28;20017;-73
2022/12/27 11:24:21;;;;;;;1999.90;999.90;;;9.10;99.90;;;;;;5053836;28;20029;-73
2022/12/27 11:26:57;;;;;;;1999.90;999.90;;;9.20;99.90;;;;;;5053432;28;20029;-72
2022/12/27 11:29:25;;;;;;;1999.90;999.90;;;9.30;99.90;;;;;;5052644;28;20029;-72
2022/12/27 11:31:52;;;;;;;1999.90;999.90;;;9.50;99.90;;;;;;5053014;28;20025;-72
2022/12/27 11:34:31;;;;;;;1999.90;999.90;;;9.80;99.90;;;;;;5053141;28;20032;-76
2022/12/27 11:37:14;;;;;;;1999.90;999.90;;;9.90;99.90;;;;;;5043580;28;20029;-73
2022/12/27 11:39:45;;;;;;;1999.90;999.90;;;10.00;99.90;;;;;;5050994;28;20024;-73
2022/12/27 11:42:24;;;;;;;1999.90;999.90;;;10.40;99.90;;;;;;5050370;28;20048;-73
2022/12/27 11:45:13;;;;;;;1999.90;999.90;;;10.30;99.90;;;;;;5042180;28;20028;-76
2022/12/27 11:47:57;;;;;;;1999.90;999.90;;;10.40;99.90;;;;;;5051166;28;20063;-74
2022/12/27 11:50:26;;;;;;;1999.90;999.90;;;10.20;99.90;;;;;;5051961;28;20468;-73
2022/12/27 11:53:06;;;;;;;1999.90;999.90;;;10.10;99.90;;;;;;5052841;28;20075;-72
2022/12/27 11:55:54;;;;;;;1999.90;999.90;;;10.10;99.90;;;;;;5052952;28;20037;-73
2022/12/27 11:58:50;;;;;;;1999.90;999.90;;;10.20;99.90;;;;;;5052874;28;20033;-76
2022/12/27 12:01:34;;;;;;;1999.90;999.90;;;10.40;99.90;;;;;;5052963;28;20431;-73
2022/12/27 12:04:24;;;;;;;1999.90;999.90;;;10.50;99.90;;;;;;5052234;28;20053;-73
2022/12/27 12:07:01;;;;;;;1999.90;999.90;;;10.70;99.90;;;;;;5050835;28;20033;-73
2022/12/27 12:09:55;;;;;;;1999.90;999.90;;;10.60;99.90;;;;;;5049163;28;20084;-76
2022/12/27 12:13:02;;;;;;;1999.90;999.90;;;10.50;99.90;;;;;;5051028;28;20029;-76
2022/12/27 12:15:52;;;;;;;1999.90;999.90;;;10.70;99.90;;;;;;5050977;28;20431;-73
2022/12/27 12:18:55;;;;;;;1999.90;999.90;;;10.80;99.90;;;;;;5051221;28;20499;-73
2022/12/27 12:21:49;;;;;;;1999.90;999.90;;;10.70;99.90;;;;;;5051170;28;20024;-76
2022/12/27 12:24:23;;;;;;;1999.90;999.90;;;10.80;99.90;;;;;;5048541;28;20037;-76
2022/12/27 12:26:57;;;;;;;1999.90;999.90;;;10.90;99.90;;;;;;5049957;28;20090;-72
2022/12/27 12:29:53;;;;;;;1999.90;999.90;;;11.00;99.90;;;;;;5050215;28;20555;-73
2022/12/27 12:32:37;;;;;;;1999.90;999.90;;;11.10;99.90;;;;;;5051469;28;20396;-73
2022/12/27 12:35:31;;;;;;;1999.90;999.90;;;11.10;99.90;;;;;;5051289;28;20090;-73
2022/12/27 12:38:27;;;;;;;1999.90;999.90;;;11.00;99.90;;;;;;5049198;28;20035;-72
2022/12/27 12:41:25;;;;;;;1999.90;999.90;;;10.80;99.90;;;;;;5048972;28;20017;-72
2022/12/27 12:44:32;;;;;;;1999.90;999.90;;;10.40;99.90;;;;;;5050122;28;20031;-72
2022/12/27 12:47:21;;;;;;;1999.90;999.90;;;10.20;99.90;;;;;;5028852;28;20519;-73
2022/12/27 12:49:50;;;;;;;1999.90;999.90;;;10.10;99.90;;;;;;5028258;28;20040;-72
2022/12/27 12:52:58;;;;;;;1999.90;999.90;;;10.10;99.90;;;;;;5026144;28;20040;-76
2022/12/27 12:55:48;;;;;;;1999.90;999.90;;;10.00;99.90;;;;;;5049189;28;20040;-73
2022/12/27 12:58:46;;;;;;;1999.90;999.90;;;10.00;99.90;;;;;;5050015;28;20060;-72
2022/12/27 13:01:20;;;;;;;1999.90;999.90;;;10.10;99.90;;;;;;5051213;28;20021;-75
2022/12/27 13:03:49;;;;;;;1999.90;999.90;;;10.30;99.90;;;;;;5051786;28;20048;-76
2022/12/27 13:06:42;;;;;;;1999.90;999.90;;;10.30;99.90;;;;;;5051931;28;20041;-71
2022/12/27 13:09:36;;;;;;;1999.90;999.90;;;10.30;99.90;;;;;;5051500;28;20029;-76
2022/12/27 13:12:23;;;;;;;1999.90;999.90;;;10.50;99.90;;;;;;5051001;28;20036;-73
2022/12/27 13:15:19;;;;;;;1999.90;999.90;;;10.40;99.90;;;;;;5048588;28;20515;-75
2022/12/27 13:18:03;;;;;;;1999.90;999.90;;;10.40;99.90;;;;;;5050626;28;20086;-73
2022/12/27 13:20:42;;;;;;;1999.90;999.90;;;10.60;99.90;;;;;;5051430;28;20080;-73
2022/12/27 13:23:22;;;;;;;1999.90;999.90;;;10.80;99.90;;;;;;5050691;28;20104;-74
2022/12/27 13:26:11;;;;;;;1999.90;999.90;;;11.10;99.90;;;;;;5051627;28;20025;-73
2022/12/27 13:28:57;;;;;;;1999.90;999.90;;;11.10;99.90;;;;;;5049237;28;20433;-73
2022/12/27 13:31:38;;;;;;;1999.90;999.90;;;11.00;99.90;;;;;;5048468;28;20021;-76
2022/12/27 13:34:19;;;;;;;1999.90;999.90;;;10.90;99.90;;;;;;5031869;28;20044;-76
2022/12/27 13:37:04;;;;;;;1999.90;999.90;;;11.00;99.90;;;;;;5041665;28;20029;-73
2022/12/27 13:39:30;;;;;;;1999.90;999.90;;;11.00;99.90;;;;;;5051208;28;20033;-73
2022/12/27 13:42:05;;;;;;;1999.90;999.90;;;11.00;99.90;;;;;;5051358;28;20028;-73
2022/12/27 13:45:24;;;;;;;1999.90;999.90;;;11.10;99.90;;;;;;5050875;28;20419;-77
2022/12/27 13:48:15;;;;;;;1999.90;999.90;;;11.40;99.90;;;;;;5029123;28;20060;-73
2022/12/27 13:51:01;;;;;;;1999.90;999.90;;;11.40;99.90;;;;;;5029706;28;20039;-73
2022/12/27 13:53:43;;;;;;;1999.90;999.90;;;11.20;99.90;;;;;;5041545;28;20503;-75
2022/12/27 13:56:27;;;;;;;1999.90;999.90;;;11.10;99.90;;;;;;5049371;28;20206;-73
2022/12/27 13:59:08;;;;;;;1999.90;999.90;;;11.10;99.90;;;;;;5048714;28;20061;-73
2022/12/27 14:02:04;;;;;;;1999.90;999.90;;;11.20;99.90;;;;;;5048386;28;20078;-73
2022/12/27 14:04:42;;;;;;;1999.90;999.90;;;11.30;99.90;;;;;;5049072;28;20088;-74
2022/12/27 14:07:19;;;;;;;1999.90;999.90;;;11.40;99.90;;;;;;5048942;28;20056;-76
2022/12/27 14:10:25;;;;;;;1999.90;999.90;;;11.50;99.90;;;;;;5048971;28;20045;-76
2022/12/27 14:13:04;;;;;;;1999.90;999.90;;;11.60;99.90;;;;;;5048561;28;20033;-73